Etusivu
METAR-TAF:

METAR-TAF

Lentoasemat :

Pearland Regional Airport

Houston / Pearland, Texas, Yhdysvallat

Leveyspiiri: 29-31-16N, Pituuspiiri: 095-14-31W, korkeus merenpinnasta: 13 m

Tämänhetkinen sää

Tämä raportti tehtiin 15 minuuttia sitten, kello 16.53 UTC
Tuuli 14 kn pohjoisesta puuskistuen 20 kn:hen
Lämpötila 17°C
Kosteus 77%
Ilmanpaine 1018 hPa
Näkyvyys: 16.1 km
Pilvistä 1000 ft:n korkeudessa

METAR: KLVJ 011653Z AUTO 01014G20KT 10SM OVC010 17/13 A3006 RMK AO2 CIG 008V012 SLP178 T01670133

Aika: 11:08 (17:08 UTC)


TAF: puuttuu

Säähavainnot ja -ennusteet yli 4000 lentoasemalta (METAR- ja TAF-raportit).

Käytössä olevat sääasemat on merkitty karttaan keltaisilla ja punaisilla pisteillä.

Aseta hiiri pisteen päälle nähdäksesi sääaseman nimen.

Klikkaa sitten nähdäksesi säähavainnot ja -ennusteet.

Kartan vaihtaminen: klikkaa mustalla rastilla varustettuja vihreitä pisteitä, niin voit zoomata sisään; viivalla varustettua vihreää pistettä, niin voit zoomata ulos tai vihreitä nuolia, niin pääset viereisille kartoille.


METAR-TAF: